| time (UTC) | temp C | wind direction | speed KPH | gust KPH | rain 1hr cm | rain 24hr cm | rain mn cm | humidity % | barometer mb |
| 20260503072059 | 16 | 243 | 0.0 | 3.2 | 0.00 | 0.00 | 0.00 | 95 | 1010.5 |
| 20260503071051 | 15 | 47 | 0.0 | 0.0 | 0.00 | 0.00 | 0.00 | 95 | 1010.4 |
| 20260503055021 | 13 | 6 | 0.0 | 0.0 | 0.00 | 0.00 | 0.00 | 95 | 1010.3 |
| 20260503054006 | 13 | 6 | 0.0 | 0.0 | 0.00 | 0.00 | 0.00 | 95 | 1010.3 |
| 20260503053100 | 13 | 6 | 0.0 | 0.0 | 0.00 | 0.00 | 0.00 | 95 | 1010.3 |
| 20260503052053 | 12 | 6 | 0.0 | 0.0 | 0.00 | 0.00 | 0.00 | 95 | 1010.3 |
| 20260503051046 | 12 | 6 | 0.0 | 0.0 | 0.00 | 0.00 | 0.00 | 95 | 1010.3 |
| 20260503050040 | 12 | 6 | 0.0 | 0.0 | 0.00 | 0.00 | 0.00 | 95 | 1010.3 |
| 20260503045026 | 12 | 6 | 0.0 | 0.0 | 0.00 | 0.00 | 0.00 | 95 | 1010.3 |
| 20260503044012 | 12 | 6 | 0.0 | 0.0 | 0.00 | 0.00 | 0.00 | 96 | 1010.4 |
| 20260503043004 | 12 | 6 | 0.0 | 0.0 | 0.00 | 0.00 | 0.00 | 96 | 1010.5 |
| 20260503042058 | 12 | 6 | 0.0 | 0.0 | 0.00 | 0.00 | 0.00 | 96 | 1010.6 |
| 20260503041051 | 12 | 6 | 0.0 | 0.0 | 0.00 | 0.00 | 0.00 | 96 | 1010.7 |
| 20260503040044 | 12 | 6 | 0.0 | 0.0 | 0.00 | 0.00 | 0.00 | 96 | 1010.7 |
| 20260503035036 | 12 | 6 | 0.0 | 0.0 | 0.00 | 0.00 | 0.00 | 96 | 1010.7 |
| 20260503034029 | 13 | 6 | 0.0 | 0.0 | 0.00 | 0.00 | 0.00 | 96 | 1010.6 |
| 20260503033021 | 12 | 6 | 0.0 | 0.0 | 0.00 | 0.00 | 0.00 | 96 | 1010.6 |
| 20260503032007 | 12 | 6 | 0.0 | 0.0 | 0.00 | 0.00 | 0.00 | 96 | 1010.5 |
| 20260503030055 | 12 | 6 | 0.0 | 0.0 | 0.00 | 0.00 | 0.00 | 96 | 1010.7 |
| 20260503025048 | 12 | 6 | 0.0 | 0.0 | 0.00 | 0.00 | 0.00 | 96 | 1010.8 |
| 20260503024041 | 12 | 6 | 0.0 | 0.0 | 0.00 | 0.00 | 0.00 | 95 | 1010.9 |
| 20260503023034 | 13 | 6 | 0.0 | 1.6 | 0.00 | 0.00 | 0.00 | 95 | 1011.0 |
| 20260503022027 | 13 | 6 | 0.0 | 0.0 | 0.00 | 0.00 | 0.00 | 95 | 1011.0 |
| 20260503021017 | 13 | 6 | 0.0 | 0.0 | 0.00 | 0.00 | 0.00 | 95 | 1011.0 |
| 20260503020005 | 13 | 6 | 0.0 | 0.0 | 0.00 | 0.00 | 0.00 | 95 | 1011.2 |
| 20260503015057 | 13 | 6 | 0.0 | 0.0 | 0.00 | 0.00 | 0.00 | 95 | 1011.2 |
| 20260503014050 | 13 | 6 | 0.0 | 0.0 | 0.00 | 0.00 | 0.00 | 95 | 1011.4 |
| 20260503013043 | 13 | 6 | 0.0 | 0.0 | 0.00 | 0.00 | 0.00 | 95 | 1011.4 |
| 20260503012036 | 13 | 6 | 0.0 | 0.0 | 0.00 | 0.00 | 0.00 | 95 | 1011.4 |
| 20260503011021 | 13 | 6 | 0.0 | 0.0 | 0.00 | 0.00 | 0.00 | 95 | 1011.4 |
| 20260503010007 | 13 | 6 | 0.0 | 0.0 | 0.00 | 0.00 | 0.00 | 95 | 1011.4 |
| 20260503005100 | 13 | 6 | 0.0 | 0.0 | 0.00 | 0.00 | 0.00 | 95 | 1011.4 |
| 20260503004052 | 13 | 6 | 0.0 | 0.0 | 0.00 | 0.00 | 0.00 | 95 | 1011.5 |
| 20260503003045 | 13 | 6 | 0.0 | 0.0 | 0.00 | 0.00 | 0.00 | 95 | 1011.7 |
| 20260503002038 | 13 | 17 | 0.0 | 1.6 | 0.00 | 0.00 | 0.00 | 95 | 1011.8 |
| 20260503001031 | 13 | 33 | 1.6 | 1.6 | 0.00 | 0.00 | 0.00 | 95 | 1011.8 |
| 20260503000019 | 13 | 344 | 0.0 | 0.0 | 0.00 | 0.00 | 0.00 | 95 | 1012.1 |
| 20260502235008 | 13 | 344 | 0.0 | 0.0 | 0.00 | 0.00 | 0.00 | 95 | 1012.3 |
| 20260502234101 | 13 | 344 | 0.0 | 1.6 | 0.00 | 0.00 | 0.00 | 95 | 1012.2 |
| 20260502233054 | 14 | 14 | 0.0 | 0.0 | 0.00 | 0.00 | 0.00 | 95 | 1012.2 |
| 20260502232047 | 14 | 14 | 0.0 | 1.6 | 0.00 | 0.00 | 0.00 | 95 | 1012.4 |
| 20260502231039 | 14 | 356 | 0.0 | 1.6 | 0.00 | 0.00 | 0.00 | 95 | 1012.5 |
| 20260502230033 | 14 | 330 | 0.0 | 1.6 | 0.00 | 0.00 | 0.00 | 94 | 1012.6 |
| 20260502225023 | 15 | 325 | 0.0 | 6.4 | 0.00 | 0.00 | 0.00 | 94 | 1012.6 |
| 20260502224011 | 15 | 310 | 1.6 | 1.6 | 0.00 | 0.00 | 0.00 | 94 | 1012.5 |
| 20260502223003 | 15 | 45 | 0.0 | 1.6 | 0.00 | 0.00 | 0.00 | 94 | 1012.2 |
| 20260502222055 | 15 | 97 | 0.0 | 1.6 | 0.00 | 0.00 | 0.00 | 94 | 1012.1 |
| 20260502221049 | 15 | 34 | 0.0 | 1.6 | 0.00 | 0.00 | 0.00 | 93 | 1012.2 |
| 20260502220042 | 15 | 84 | 0.0 | 3.2 | 0.00 | 0.00 | 0.00 | 93 | 1012.2 |
| 20260502215035 | 15 | 102 | 0.0 | 0.0 | 0.00 | 0.00 | 0.48 | 92 | 1012.4 |
| 20260502214027 | 15 | 102 | 0.0 | 1.6 | 0.00 | 0.00 | 0.48 | 91 | 1012.4 |
| 20260502213011 | 15 | 82 | 0.0 | 3.2 | 0.00 | 0.00 | 0.48 | 91 | 1012.3 |
| 20260502212004 | 15 | 61 | 0.0 | 4.8 | 0.00 | 0.00 | 0.48 | 90 | 1012.3 |
| 20260502211056 | 15 | 15 | 1.6 | 4.8 | 0.00 | 0.00 | 0.48 | 90 | 1012.3 |
| 20260502210049 | 15 | 359 | 1.6 | 9.7 | 0.00 | 0.00 | 0.48 | 89 | 1012.5 |
| 20260502205042 | 15 | 44 | 6.4 | 6.4 | 0.18 | 0.00 | 0.48 | 88 | 1012.5 |
| 20260502204035 | 16 | 29 | 3.2 | 11.3 | 2.59 | 0.00 | 0.46 | 86 | 1012.7 |
| 20260502203028 | 17 | 333 | 1.6 | 16.1 | 0.13 | 0.00 | 0.03 | 77 | 1013.7 |
| 20260502202011 | 18 | 333 | 3.2 | 11.3 | 0.00 | 0.00 | 0.00 | 71 | 1012.9 |
| 20260502201004 | 18 | 320 | 6.4 | 14.5 | 0.00 | 0.00 | 0.00 | 68 | 1012.9 |
| 20260502200058 | 20 | 278 | 6.4 | 25.7 | 0.00 | 0.00 | 0.00 | 66 | 1013.3 |
| 20260502195051 | 19 | 80 | 1.6 | 3.2 | 0.00 | 0.00 | 0.00 | 64 | 1012.3 |
| 20260502194043 | 19 | 95 | 3.2 | 3.2 | 0.00 | 0.00 | 0.00 | 68 | 1012.0 |
| 20260502193101 | 20 | 244 | 0.0 | 0.0 | 0.00 | 0.00 | 0.00 | 66 | 1012.1 |
| 20260502192054 | 20 | 244 | 0.0 | 0.0 | 0.00 | 0.00 | 0.00 | 65 | 1012.1 |
| 20260502191046 | 20 | 244 | 0.0 | 0.0 | 0.00 | 0.00 | 0.00 | 64 | 1012.1 |
| 20260502190039 | 20 | 244 | 0.0 | 0.0 | 0.00 | 0.00 | 0.00 | 63 | 1012.0 |
| 20260502185032 | 21 | 244 | 0.0 | 0.0 | 0.00 | 0.00 | 0.00 | 62 | 1012.2 |
| 20260502184025 | 21 | 244 | 0.0 | 0.0 | 0.00 | 0.00 | 0.00 | 60 | 1012.1 |
| 20260502183005 | 21 | 244 | 0.0 | 0.0 | 0.00 | 0.00 | 0.00 | 59 | 1012.2 |
| 20260502182056 | 22 | 244 | 0.0 | 0.0 | 0.00 | 0.00 | 0.00 | 58 | 1012.2 |
| 20260502181050 | 22 | 244 | 0.0 | 0.0 | 0.00 | 0.00 | 0.00 | 56 | 1012.2 |
| 20260502164100 | 25 | 220 | 1.6 | 3.2 | 0.00 | 0.00 | 0.00 | 47 | 1012.7 |
| 20260502163033 | 24 | 204 | 1.6 | 4.8 | 0.00 | 0.00 | 0.00 | 47 | 1012.9 |
| 20260502162010 | 24 | 234 | 4.8 | 4.8 | 0.00 | 0.00 | 0.00 | 47 | 1013.0 |
| 20260502161003 | 25 | 218 | 3.2 | 6.4 | 0.00 | 0.00 | 0.00 | 49 | 1013.2 |
| 20260502152027 | 25 | 204 | 6.4 | 9.7 | 0.00 | 0.00 | 0.00 | 46 | 1013.7 |
| 20260502151012 | 25 | 223 | 4.8 | 9.7 | 0.00 | 0.00 | 0.00 | 47 | 1014.0 |
| 20260502123059 | 23 | 271 | 4.8 | 9.7 | 0.00 | 0.00 | 0.00 | 53 | 1016.0 |
| 20260502122049 | 23 | 296 | 1.6 | 6.4 | 0.00 | 0.00 | 0.00 | 52 | 1016.3 |
| 20260502121043 | 23 | 241 | 3.2 | 3.2 | 0.00 | 0.00 | 0.00 | 51 | 1016.3 |
| 20260502115029 | 23 | 265 | 8.0 | 11.3 | 0.00 | 0.00 | 0.00 | 54 | 1016.6 |
| 20260502114020 | 23 | 318 | 1.6 | 12.9 | 0.00 | 0.00 | 0.00 | 56 | 1016.8 |
| 20260502113008 | 23 | 245 | 3.2 | 11.3 | 0.00 | 0.00 | 0.00 | 56 | 1016.9 |
| 20260502112101 | 23 | 220 | 3.2 | 11.3 | 0.00 | 0.00 | 0.00 | 57 | 1017.0 |
| 20260502111054 | 23 | 249 | 4.8 | 12.9 | 0.00 | 0.00 | 0.00 | 56 | 1017.1 |
| 20260502110047 | 22 | 227 | 3.2 | 4.8 | 0.00 | 0.00 | 0.00 | 55 | 1017.1 |
| 20260502105040 | 23 | 324 | 3.2 | 9.7 | 0.00 | 0.00 | 0.00 | 57 | 1017.2 |
| 20260502104032 | 23 | 227 | 1.6 | 11.3 | 0.00 | 0.00 | 0.00 | 57 | 1017.2 |
| 20260502103021 | 23 | 299 | 1.6 | 6.4 | 0.00 | 0.00 | 0.00 | 55 | 1017.2 |
| 20260502102006 | 23 | 222 | 3.2 | 4.8 | 0.00 | 0.00 | 0.00 | 55 | 1017.3 |
| 20260502101059 | 23 | 217 | 0.0 | 9.7 | 0.00 | 0.00 | 0.00 | 57 | 1017.4 |
| 20260502091011 | 23 | 241 | 1.6 | 9.7 | 0.00 | 0.00 | 0.00 | 58 | 1017.8 |